Anchor, Texas
Current Conditions -  °F | °C
As of 3:53 AM on Wednesday 22 Oct 2014 (Local Time) from KLBX Reporting Station
Clear Clear  
Wind Chill: 62°   Ceiling: Unl
Heat Index: 62°   Visibility: 8mi
Dew Point: 61°   Wind: 5mph
Humidity: 96%   Direction: 10°N
Pressure: 30"   Gusts: NA
Location:  29.1898°N, 95.4754°W
Report Text: KLBX 220853Z AUTO 01004KT 8SM CLR 17/16 A3000 RMK AO2 SLP160 T01670161 58004
Loading
Personal Weather Stations






























Interactive Weather Map
Tropical Storm Tracking
New forecast layout! Learn more

10-Day Weather Forecast

Advertisements
Track Severe Weather on mobile